Time;durP1;ratioP1;P1;durP2;ratioP2;P2;SDS_P1;SDS_P2;PMS_P1;PMS_P2;Temp;Humidity;BMP_temperature;BMP_pressure;BME280_temperature;BME280_humidity;BME280_pressure;Samples;Min_cycle;Max_cycle;Signal;HPM_P1;HPM_P2
2022/09/30 00:02:21;;;;;;;4.18;2.10;;;9.80;99.90;;;9.74;100.00;100192.75;5226136;28;20419;-81
2022/09/30 00:04:53;;;;;;;3.63;2.20;;;9.70;99.90;;;9.71;100.00;100197.84;5226143;28;20044;-81
2022/09/30 00:07:26;;;;;;;4.07;2.15;;;9.70;99.90;;;9.68;100.00;100205.59;5209861;28;20482;-81
2022/09/30 00:09:59;;;;;;;2.22;1.90;;;9.70;99.90;;;9.62;100.00;100205.41;5209676;28;20055;-81
2022/09/30 00:12:32;;;;;;;3.63;2.42;;;9.60;99.90;;;9.55;100.00;100201.75;5209894;28;20049;-80
2022/09/30 00:15:06;;;;;;;3.17;2.17;;;9.50;99.90;;;9.50;100.00;100200.72;5209783;28;20450;-81
2022/09/30 00:17:40;;;;;;;5.03;2.13;;;9.50;99.90;;;9.44;100.00;100204.00;5209370;28;20052;-81
2022/09/30 00:20:14;;;;;;;3.55;2.25;;;9.40;99.90;;;9.38;100.00;100214.22;5225370;28;20049;-80
2022/09/30 00:22:47;;;;;;;4.95;2.40;;;9.40;99.90;;;9.33;100.00;100207.16;5209302;28;20726;-82
2022/09/30 00:25:21;;;;;;;4.07;2.20;;;9.40;99.90;;;9.30;100.00;100213.13;5208900;28;20144;-81
2022/09/30 00:27:57;;;;;;;3.75;2.17;;;9.30;99.90;;;9.25;100.00;100220.78;5226974;28;20123;-80
2022/09/30 00:30:29;;;;;;;3.42;2.05;;;9.30;99.90;;;9.21;100.00;100207.66;5225469;28;20094;-81
2022/09/30 00:33:03;;;;;;;2.78;1.83;;;9.20;99.90;;;9.16;100.00;100217.03;5209002;28;20055;-80
2022/09/30 00:35:38;;;;;;;4.70;2.30;;;9.20;99.90;;;9.13;100.00;100215.22;5226082;28;20147;-81
2022/09/30 00:38:10;;;;;;;4.85;2.30;;;9.10;99.90;;;9.11;100.00;100211.66;5209597;28;20127;-82
2022/09/30 00:40:43;;;;;;;5.05;2.38;;;9.10;99.90;;;9.10;100.00;100219.44;5226577;28;20061;-81
2022/09/30 00:43:19;;;;;;;3.85;2.35;;;9.10;99.90;;;9.08;100.00;100227.19;5225881;28;20063;-81
2022/09/30 00:46:01;;;;;;;3.80;2.40;;;9.10;99.90;;;9.06;100.00;100225.34;5225963;28;20128;-80
2022/09/30 00:48:40;;;;;;;4.38;2.40;;;9.10;99.90;;;9.05;100.00;100231.41;5225390;28;20718;-81
2022/09/30 00:51:14;;;;;;;3.75;2.20;;;9.10;99.90;;;9.02;100.00;100233.91;5225665;28;20053;-81
2022/09/30 00:53:54;;;;;;;4.72;2.40;;;9.00;99.90;;;8.98;100.00;100228.59;5225464;28;20144;-81
2022/09/30 00:57:02;;;;;;;4.43;2.42;;;9.00;99.90;;;8.93;100.00;100227.59;5306434;27;20378;-69
2022/09/30 00:59:40;;;;;;;4.22;2.00;;;9.00;99.90;;;8.89;100.00;100225.72;5285297;28;20044;-70
2022/09/30 01:02:13;;;;;;;3.90;2.33;;;8.90;99.90;;;8.87;100.00;100223.91;5286121;28;20055;-69
2022/09/30 01:04:46;;;;;;;4.85;2.45;;;8.90;99.90;;;8.85;100.00;100218.63;5284578;28;20516;-68
2022/09/30 01:07:19;;;;;;;3.55;2.30;;;8.90;99.90;;;8.83;100.00;100220.31;5285962;28;20085;-73
2022/09/30 01:09:53;;;;;;;3.53;2.17;;;8.80;99.90;;;8.80;100.00;100220.22;5284305;28;20047;-71
2022/09/30 01:12:27;;;;;;;4.97;2.40;;;8.80;99.90;;;8.79;100.00;100228.84;5284852;28;20139;-69
2022/09/30 01:15:00;;;;;;;5.45;2.60;;;8.80;99.90;;;8.82;100.00;100228.06;5284620;28;20066;-72
2022/09/30 01:17:45;;;;;;;5.88;2.90;;;8.80;99.90;;;8.84;100.00;100224.69;5284806;28;20058;-69
2022/09/30 01:20:54;;;;;;;6.63;3.58;;;8.80;99.90;;;8.82;100.00;100228.94;5284067;28;20503;-70
2022/09/30 01:24:12;;;;;;;5.95;3.00;;;8.80;99.90;;;8.77;100.00;100230.50;5283565;28;20101;-69
2022/09/30 01:27:37;;;;;;;6.18;3.15;;;8.80;99.90;;;8.74;100.00;100235.63;5283057;28;20048;-70
2022/09/30 01:30:19;;;;;;;7.25;3.13;;;8.80;99.90;;;8.68;100.00;100233.69;5219204;28;20049;-74
2022/09/30 01:33:28;;;;;;;6.88;2.90;;;8.70;99.90;;;8.66;100.00;100240.53;5284686;28;20518;-69
2022/09/30 01:36:20;;;;;;;6.00;2.90;;;8.70;99.90;;;8.67;100.00;100238.81;5284194;28;20048;-70
2022/09/30 01:39:02;;;;;;;7.28;3.03;;;8.70;99.90;;;8.64;100.00;100238.72;5283711;28;20228;-70
2022/09/30 01:41:44;;;;;;;9.07;4.43;;;8.70;99.90;;;8.61;100.00;100243.84;5282871;28;20419;-70
2022/09/30 01:44:27;;;;;;;9.27;4.22;;;8.70;99.90;;;8.63;100.00;100252.56;5284293;28;20054;-70
2022/09/30 01:47:08;;;;;;;13.35;5.53;;;8.60;99.90;;;8.65;100.00;100245.69;5283638;28;20500;-71
2022/09/30 01:49:47;;;;;;;11.18;4.60;;;8.70;99.90;;;8.64;100.00;100259.50;5283764;28;20568;-72
2022/09/30 01:52:27;;;;;;;10.20;4.50;;;8.70;99.90;;;8.62;100.00;100253.41;5283623;28;20051;-71
2022/09/30 01:55:07;;;;;;;9.38;4.03;;;8.60;99.90;;;8.58;100.00;100259.31;5283830;28;20077;-71
2022/09/30 01:57:46;;;;;;;9.70;4.55;;;8.60;99.90;;;8.54;100.00;100255.75;5283494;28;20130;-71
2022/09/30 02:00:20;;;;;;;9.38;4.22;;;8.60;99.90;;;8.48;100.00;100258.13;5283466;28;20067;-71
2022/09/30 02:02:56;;;;;;;7.07;3.95;;;8.50;99.90;;;8.44;100.00;100258.84;5283485;28;20044;-69
2022/09/30 02:05:37;;;;;;;6.85;3.45;;;8.50;99.90;;;8.46;100.00;100248.50;5283777;28;20040;-70
2022/09/30 02:08:17;;;;;;;6.45;3.17;;;8.50;99.90;;;8.48;100.00;100257.25;5268808;28;20040;-72
2022/09/30 02:10:57;;;;;;;6.78;2.97;;;8.50;99.90;;;8.47;100.00;100255.44;5269227;28;20050;-74
2022/09/30 02:13:36;;;;;;;5.85;3.35;;;8.50;99.90;;;8.46;100.00;100253.69;5269448;28;20051;-70
2022/09/30 02:16:14;;;;;;;5.63;3.20;;;8.50;99.90;;;8.43;100.00;100255.34;5269484;28;20040;-71
2022/09/30 02:18:49;;;;;;;4.93;2.75;;;8.50;99.90;;;8.39;100.00;100258.66;5269142;28;20044;-71
2022/09/30 02:21:27;;;;;;;4.55;2.67;;;8.50;99.90;;;8.36;100.00;100266.34;5269353;28;20094;-69
2022/09/30 02:24:06;;;;;;;4.53;2.33;;;8.40;99.90;;;8.31;100.00;100269.59;5269338;28;20048;-69
2022/09/30 02:26:42;;;;;;;4.15;2.85;;;8.40;99.90;;;8.28;100.00;100254.78;5269849;28;20047;-74
2022/09/30 02:29:19;;;;;;;6.55;2.53;;;8.30;99.90;;;8.26;100.00;100260.75;5268509;28;20044;-70
2022/09/30 02:31:56;;;;;;;5.50;3.17;;;8.30;99.90;;;8.25;100.00;100259.84;5269485;28;20445;-69
2022/09/30 02:34:32;;;;;;;5.63;3.03;;;8.30;99.90;;;8.23;100.00;100261.53;5268906;28;20036;-70
2022/09/30 02:37:13;;;;;;;3.95;2.30;;;8.30;99.90;;;8.19;100.00;100253.56;5269135;28;20040;-73
2022/09/30 02:39:53;;;;;;;5.35;2.50;;;8.20;99.90;;;8.14;100.00;100249.09;5267660;28;20048;-70
2022/09/30 02:42:28;;;;;;;4.78;2.65;;;8.20;99.90;;;8.16;100.00;100249.16;5268876;28;20044;-71
2022/09/30 02:45:07;;;;;;;6.47;2.45;;;8.20;99.90;;;8.13;100.00;100252.50;5269218;28;20047;-71
2022/09/30 02:47:57;;;;;;;4.88;2.53;;;8.20;99.90;;;8.11;100.00;100258.50;5267725;28;20101;-72
2022/09/30 02:50:34;;;;;;;3.92;2.10;;;8.20;99.90;;;8.07;100.00;100252.28;5267142;28;20097;-70
2022/09/30 02:53:21;;;;;;;3.67;2.30;;;8.10;99.90;;;8.03;100.00;100247.84;5268746;28;20051;-69
2022/09/30 02:56:18;;;;;;;3.90;2.72;;;8.10;99.90;;;8.01;100.00;100249.47;5268737;28;20479;-73
2022/09/30 02:58:51;;;;;;;4.60;2.47;;;8.10;99.90;;;7.98;100.00;100253.69;5268293;28;20051;-71
2022/09/30 03:01:25;;;;;;;4.63;2.30;;;8.10;99.90;;;7.95;100.00;100263.94;5268522;28;20051;-69
2022/09/30 03:04:02;;;;;;;3.58;2.60;;;8.00;99.90;;;7.96;100.00;100260.53;5268367;28;20048;-69
2022/09/30 03:06:36;;;;;;;3.97;2.40;;;8.00;99.90;;;7.92;100.00;100253.47;5268733;28;20472;-71
2022/09/30 03:09:09;;;;;;;3.92;2.42;;;8.00;99.90;;;7.88;100.00;100255.91;5268192;28;20048;-72
2022/09/30 03:11:42;;;;;;;3.92;2.50;;;8.00;99.90;;;7.85;100.00;100263.59;5268600;28;20044;-70
2022/09/30 03:14:41;;;;;;;3.55;2.70;;;8.00;99.90;;;7.82;100.00;100263.50;5268036;28;20044;-70
2022/09/30 03:17:39;;;;;;;3.15;1.92;;;7.90;99.90;;;7.80;100.00;100267.75;5268461;28;20042;-69
2022/09/30 03:20:30;;;;;;;5.15;2.38;;;7.90;99.90;;;7.81;100.00;100272.09;5267413;28;20071;-69
2022/09/30 03:23:43;;;;;;;3.78;2.28;;;7.90;99.90;;;7.82;100.00;100267.78;5268219;28;20043;-69
2022/09/30 03:26:28;;;;;;;4.47;2.63;;;7.90;99.90;;;7.82;100.00;100279.06;5268325;28;20039;-70
2022/09/30 03:29:10;;;;;;;4.75;2.33;;;7.90;99.90;;;7.82;100.00;100285.94;5266308;28;20055;-69
2022/09/30 03:31:57;;;;;;;4.07;2.28;;;7.90;99.90;;;7.76;100.00;100281.44;5268103;28;20047;-74
2022/09/30 03:34:37;;;;;;;3.47;2.33;;;7.90;99.90;;;7.72;100.00;100287.31;5267814;28;20552;-68
2022/09/30 03:37:25;;;;;;;3.72;2.20;;;7.90;99.90;;;7.67;100.00;100281.06;5268257;28;20046;-69
2022/09/30 03:40:04;;;;;;;3.53;2.13;;;7.80;99.90;;;7.63;100.00;100281.81;5266163;28;20055;-71
2022/09/30 03:42:42;;;;;;;5.03;2.30;;;7.70;99.90;;;7.59;100.00;100290.28;5266634;28;20048;-71
2022/09/30 03:45:21;;;;;;;3.35;2.20;;;7.70;99.90;;;7.55;100.00;100278.88;5267931;28;20044;-73
2022/09/30 03:47:59;;;;;;;2.85;2.05;;;7.60;99.90;;;7.52;100.00;100288.28;5267903;28;20520;-70
2022/09/30 03:50:33;;;;;;;3.33;2.35;;;7.60;99.90;;;7.49;100.00;100298.50;5267326;28;20101;-70
2022/09/30 03:53:11;;;;;;;3.28;2.15;;;7.60;99.90;;;7.46;100.00;100293.22;5267889;28;20044;-69
2022/09/30 03:55:49;;;;;;;3.05;2.05;;;7.60;99.90;;;7.44;100.00;100302.66;5267396;28;20040;-69
2022/09/30 03:58:23;;;;;;;4.53;2.33;;;7.50;99.90;;;7.41;100.00;100299.94;5268650;28;20044;-70
2022/09/30 04:00:56;;;;;;;3.97;2.30;;;7.50;99.90;;;7.38;100.00;100305.00;5268286;28;20040;-69
2022/09/30 04:03:28;;;;;;;4.18;1.90;;;7.50;99.90;;;7.34;100.00;100320.44;5268518;28;20047;-73
2022/09/30 04:06:01;;;;;;;4.90;2.45;;;7.50;99.90;;;7.35;100.00;100316.13;5268821;28;20044;-70
2022/09/30 04:08:33;;;;;;;3.45;2.20;;;7.40;99.90;;;7.34;100.00;100327.31;5268423;28;20071;-70
2022/09/30 04:11:06;;;;;;;5.15;2.70;;;7.40;99.90;;;7.34;100.00;100329.91;5268923;28;20059;-69
2022/09/30 04:13:39;;;;;;;4.38;2.30;;;7.40;99.90;;;7.34;100.00;100330.78;5268257;28;20066;-70
2022/09/30 04:16:11;;;;;;;4.13;2.22;;;7.50;99.90;;;7.36;100.00;100338.63;5268192;28;20036;-73
2022/09/30 04:18:43;;;;;;;3.65;2.30;;;7.40;99.90;;;7.36;100.00;100341.22;5266728;28;20043;-70
2022/09/30 04:21:16;;;;;;;4.93;2.20;;;7.50;99.90;;;7.34;100.00;100345.47;5265348;28;20048;-71
2022/09/30 04:23:49;;;;;;;6.00;2.70;;;7.40;99.90;;;7.32;100.00;100342.81;5267076;28;20118;-69
2022/09/30 04:26:21;;;;;;;5.32;2.55;;;7.40;99.90;;;7.27;100.00;100352.13;5267031;28;20044;-69
2022/09/30 04:28:57;;;;;;;3.70;2.08;;;7.40;99.90;;;7.21;100.00;100349.28;5266769;28;20054;-69
2022/09/30 04:31:29;;;;;;;5.13;2.80;;;7.30;99.90;;;7.18;100.00;100353.47;5266769;28;20048;-74
2022/09/30 04:34:02;;;;;;;5.13;2.50;;;7.30;99.90;;;7.15;100.00;100353.31;5267164;28;20518;-69
2022/09/30 04:36:34;;;;;;;3.88;2.20;;;7.30;99.90;;;7.11;100.00;100349.72;5266944;28;20044;-68
2022/09/30 04:39:07;;;;;;;3.70;2.13;;;7.20;99.90;;;7.09;100.00;100353.94;5266785;28;20520;-70
2022/09/30 04:41:39;;;;;;;4.53;2.47;;;7.20;99.90;;;7.08;100.00;100355.66;5266564;28;20055;-69
2022/09/30 04:44:13;;;;;;;4.97;2.28;;;7.20;99.90;;;7.07;100.00;100366.84;5265576;28;20044;-70
2022/09/30 04:46:45;;;;;;;5.10;2.60;;;7.20;99.90;;;7.03;100.00;100357.16;5265332;28;20075;-73
2022/09/30 04:49:17;;;;;;;4.18;2.38;;;7.20;99.90;;;7.03;100.00;100364.06;5265075;28;20048;-71
2022/09/30 04:51:49;;;;;;;3.22;2.25;;;7.10;99.90;;;7.00;100.00;100364.81;5266747;28;20046;-72
2022/09/30 04:54:21;;;;;;;3.72;2.80;;;7.10;99.90;;;7.00;100.00;100362.22;5265538;28;20398;-72
2022/09/30 04:56:53;;;;;;;5.30;2.78;;;7.10;99.90;;;7.02;100.00;100367.47;5266496;28;20036;-72
2022/09/30 04:59:27;;;;;;;6.53;3.03;;;7.10;99.90;;;7.05;100.00;100371.09;5265501;28;20052;-70
2022/09/30 05:02:01;;;;;;;5.30;2.45;;;7.20;99.90;;;7.09;100.00;100379.88;5266567;28;20105;-70
2022/09/30 05:04:33;;;;;;;4.85;3.03;;;7.20;99.90;;;7.10;100.00;100375.56;5265417;28;20414;-70
2022/09/30 05:07:07;;;;;;;5.35;2.70;;;7.20;99.90;;;7.07;100.00;100372.03;5266504;28;20036;-69
2022/09/30 05:09:39;;;;;;;4.28;2.60;;;7.20;99.90;;;7.07;100.00;100386.69;5266298;28;20599;-70
2022/09/30 05:12:12;;;;;;;5.75;3.20;;;7.20;99.90;;;7.04;100.00;100387.47;5265515;28;20213;-70
2022/09/30 05:14:45;;;;;;;5.07;3.28;;;7.20;99.90;;;7.01;100.00;100396.81;5266450;28;20423;-74
2022/09/30 05:17:17;;;;;;;5.68;2.97;;;7.10;99.90;;;6.97;100.00;100397.47;5266293;28;20116;-69
2022/09/30 05:19:49;;;;;;;5.25;2.70;;;7.10;99.90;;;6.95;100.00;100389.66;5277733;22;20040;-69
2022/09/30 05:22:23;;;;;;;5.32;2.65;;;7.10;99.90;;;6.92;100.00;100389.53;5244590;28;20064;-69
2022/09/30 05:24:55;;;;;;;4.82;2.50;;;7.00;99.90;;;6.89;100.00;100393.69;5244943;28;20051;-68
2022/09/30 05:27:28;;;;;;;3.72;2.40;;;7.00;99.90;;;6.87;100.00;100397.94;5243999;28;20044;-69
2022/09/30 05:30:01;;;;;;;4.65;2.33;;;7.00;99.90;;;6.84;100.00;100392.59;5243950;28;20049;-67
2022/09/30 05:32:33;;;;;;;4.00;2.45;;;7.00;99.90;;;6.82;100.00;100383.88;5243530;28;20049;-69
2022/09/30 05:35:08;;;;;;;4.65;2.53;;;7.00;99.90;;;6.81;100.00;100388.19;5244984;28;20044;-69
2022/09/30 05:37:40;;;;;;;4.85;2.60;;;6.90;99.90;;;6.80;100.00;100397.66;5243538;28;20040;-69
2022/09/30 05:40:12;;;;;;;5.03;3.03;;;6.90;99.90;;;6.82;100.00;100396.84;5244715;28;20408;-69
2022/09/30 05:42:45;;;;;;;3.60;2.10;;;6.90;99.90;;;6.85;100.00;100400.47;5247630;28;20074;-66
2022/09/30 05:45:18;;;;;;;4.60;3.22;;;7.00;99.90;;;6.88;100.00;100399.69;5249370;28;20440;-59
2022/09/30 05:47:52;;;;;;;5.97;3.55;;;7.00;99.90;;;6.89;100.00;100396.28;5247019;28;20323;-59
2022/09/30 05:50:25;;;;;;;4.32;2.13;;;7.00;99.90;;;6.92;100.00;100396.44;5248145;28;20055;-59
2022/09/30 05:52:57;;;;;;;6.10;2.80;;;7.00;99.90;;;6.93;100.00;100406.84;5247654;28;20045;-60
2022/09/30 05:55:30;;;;;;;4.82;2.58;;;7.00;99.90;;;6.94;100.00;100399.97;5248398;28;20040;-60
2022/09/30 05:58:02;;;;;;;3.72;2.30;;;7.10;99.90;;;6.96;100.00;100408.66;5248066;28;20242;-62
2022/09/30 06:00:36;;;;;;;4.47;2.38;;;7.10;99.90;;;6.98;100.00;100414.81;5247839;28;20053;-60
2022/09/30 06:03:09;;;;;;;4.05;2.40;;;7.10;99.90;;;7.02;100.00;100419.31;5247872;28;20044;-60
2022/09/30 06:05:41;;;;;;;4.70;2.70;;;7.10;99.90;;;7.05;100.00;100430.69;5248138;28;20057;-58
2022/09/30 06:08:14;;;;;;;4.30;2.45;;;7.20;99.90;;;7.13;100.00;100433.63;5247988;28;20044;-58
2022/09/30 06:10:46;;;;;;;5.70;3.15;;;7.20;99.90;;;7.21;100.00;100437.41;5247791;28;20105;-56
2022/09/30 06:13:20;;;;;;;4.90;2.85;;;7.30;99.90;;;7.27;100.00;100439.38;5248332;28;20045;-56
2022/09/30 06:16:01;;;;;;;7.40;3.20;;;7.40;99.90;;;7.34;100.00;100439.69;5248382;28;20075;-56
2022/09/30 06:18:34;;;;;;;5.75;3.22;;;7.40;99.90;;;7.44;100.00;100450.47;5247831;28;20044;-55
2022/09/30 06:21:06;;;;;;;6.85;3.38;;;7.50;99.90;;;7.53;100.00;100458.63;5246658;28;20048;-55
2022/09/30 06:23:38;;;;;;;4.30;3.20;;;7.60;99.90;;;7.66;100.00;100460.91;5247709;28;20491;-59
2022/09/30 06:26:13;;;;;;;4.88;2.80;;;7.70;99.90;;;7.67;100.00;100460.06;5247717;28;20040;-58
2022/09/30 06:28:45;;;;;;;5.03;2.60;;;7.70;99.90;;;7.70;100.00;100455.03;5245871;28;20501;-59
2022/09/30 06:31:18;;;;;;;5.10;3.05;;;7.70;99.90;;;7.87;100.00;100464.34;5247900;28;20044;-59
2022/09/30 06:33:53;;;;;;;5.85;3.05;;;7.90;99.90;;;8.81;100.00;100463.69;5247721;28;20048;-59
2022/09/30 06:36:28;;;;;;;6.45;3.28;;;8.40;99.90;;;10.35;100.00;100461.91;5247935;28;20443;-55
2022/09/30 06:39:00;;;;;;;5.72;3.33;;;9.50;99.90;;;11.98;100.00;100466.38;5246825;28;20052;-57
2022/09/30 06:41:36;;;;;;;4.70;3.00;;;10.70;99.90;;;13.57;100.00;100467.09;5247699;28;20050;-59
2022/09/30 06:44:09;;;;;;;11.07;4.90;;;12.10;99.90;;;14.93;92.64;100467.41;5247217;28;20048;-58
2022/09/30 06:46:42;;;;;;;9.77;4.40;;;13.40;99.90;;;15.82;85.71;100468.31;5247476;28;20555;-60
2022/09/30 06:49:15;;;;;;;8.30;4.53;;;14.30;99.90;;;16.72;80.01;100470.69;5247773;28;20041;-59
2022/09/30 06:51:47;;;;;;;6.63;3.60;;;15.10;98.20;;;17.47;76.47;100469.13;5248311;28;20049;-59
2022/09/30 06:54:20;;;;;;;5.90;3.10;;;15.90;96.20;;;18.12;72.70;100475.34;5247762;28;20501;-60
2022/09/30 06:56:54;;;;;;;7.50;3.47;;;16.60;94.00;;;18.28;70.66;100486.78;5247868;28;20497;-51
2022/09/30 06:59:26;;;;;;;4.97;2.92;;;16.80;92.00;;;18.30;70.44;100485.00;5248082;28;20056;-55
2022/09/30 07:02:00;;;;;;;6.32;2.83;;;16.80;91.40;;;18.46;69.52;100489.38;5247342;28;20051;-56
2022/09/30 07:04:32;;;;;;;4.90;2.67;;;16.90;90.80;;;18.86;66.95;100492.81;5248013;28;20047;-60
2022/09/30 07:07:05;;;;;;;4.30;2.70;;;17.30;88.70;;;19.31;65.47;100503.19;5247808;28;20040;-60
2022/09/30 07:09:38;;;;;;;5.55;2.90;;;17.70;86.10;;;19.59;63.74;100491.56;5245020;28;20386;-60
2022/09/30 07:12:10;;;;;;;4.85;2.88;;;18.00;83.20;;;19.63;63.45;100492.44;5246762;28;20416;-60
2022/09/30 07:14:42;;;;;;;4.25;2.53;;;18.20;81.60;;;19.71;62.34;100506.47;5246820;28;20040;-61
2022/09/30 07:17:15;;;;;;;4.03;2.58;;;18.40;79.60;;;19.61;62.35;100494.19;5246999;28;20046;-59
2022/09/30 07:19:47;;;;;;;4.53;2.50;;;18.30;78.50;;;19.61;62.77;100508.28;5246175;28;20046;-59
2022/09/30 07:22:30;;;;;;;5.35;2.63;;;18.40;78.60;;;19.74;62.67;100511.72;5247366;28;20045;-61
2022/09/30 07:25:03;;;;;;;5.05;2.80;;;18.50;78.10;;;19.70;62.04;100521.47;5247337;28;20068;-60
2022/09/30 07:27:35;;;;;;;5.43;2.45;;;18.50;76.90;;;19.74;61.97;100533.75;5247135;28;20358;-61
2022/09/30 07:30:09;;;;;;;5.75;2.88;;;18.60;76.60;;;19.75;61.84;100530.22;5246717;28;20066;-60
2022/09/30 07:32:43;;;;;;;4.18;2.53;;;18.60;76.00;;;19.67;61.96;100528.53;5247128;28;20537;-59
2022/09/30 07:35:15;;;;;;;4.03;2.80;;;18.50;76.00;;;19.82;62.02;100527.53;5247326;28;20055;-59
2022/09/30 07:37:49;;;;;;;5.05;2.63;;;18.60;76.10;;;19.93;62.10;100533.63;5246179;28;20052;-61
2022/09/30 07:40:21;;;;;;;6.75;3.13;;;18.70;76.10;;;19.89;61.79;100538.09;5247162;28;20055;-61
2022/09/30 07:42:53;;;;;;;4.88;2.90;;;18.70;75.70;;;19.88;62.13;100535.44;5247759;28;20444;-59
2022/09/30 07:45:26;;;;;;;4.50;2.67;;;18.70;75.70;;;19.94;61.53;100540.69;5247436;28;20106;-61
2022/09/30 07:48:00;;;;;;;3.80;2.38;;;18.70;75.20;;;20.13;61.34;100546.72;5247724;28;20041;-62
2022/09/30 07:50:32;;;;;;;3.33;2.45;;;18.70;75.10;;;20.47;60.31;100542.00;5246934;28;20048;-61
2022/09/30 07:53:04;;;;;;;5.57;2.70;;;18.80;74.50;;;20.71;60.18;100540.91;5246119;28;20420;-60
2022/09/30 07:55:36;;;;;;;4.97;2.38;;;18.90;74.70;;;21.23;59.06;100546.47;5247708;28;20043;-60
2022/09/30 07:58:09;;;;;;;3.88;2.40;;;19.10;74.00;;;21.74;57.61;100538.72;5247230;28;20485;-62
2022/09/30 08:00:42;;;;;;;5.07;2.88;;;19.50;72.60;;;21.96;57.35;100533.94;5245686;28;20136;-61
2022/09/30 08:03:15;;;;;;;4.00;2.70;;;19.70;72.00;;;22.03;57.31;100534.72;5247729;28;20048;-61
2022/09/30 08:05:47;;;;;;;3.78;2.38;;;19.80;71.80;;;22.30;56.52;100528.09;5247210;28;20052;-60
2022/09/30 08:08:20;;;;;;;3.85;2.47;;;20.10;70.70;;;22.49;56.65;100540.16;5247180;28;20037;-59
2022/09/30 08:10:52;;;;;;;4.30;2.65;;;20.20;70.70;;;22.65;56.00;100546.94;5247078;28;20505;-60
2022/09/30 08:13:24;;;;;;;5.40;2.85;;;20.40;69.80;;;22.74;55.57;100541.44;5247395;28;20051;-60
2022/09/30 08:15:56;;;;;;;3.67;2.22;;;20.60;68.90;;;22.78;55.35;100552.91;5246044;28;20056;-60
2022/09/30 08:18:30;;;;;;;3.92;2.60;;;20.60;68.60;;;22.73;55.83;100549.44;5246972;28;20044;-60
2022/09/30 08:21:05;;;;;;;4.10;2.30;;;20.60;68.70;;;22.84;55.60;100547.47;5247143;28;20041;-63
2022/09/30 08:23:37;;;;;;;4.80;2.50;;;20.70;68.60;;;22.94;54.60;100549.06;5247428;28;20134;-61
2022/09/30 08:26:11;;;;;;;3.33;2.30;;;20.90;67.30;;;22.88;55.20;100550.97;5247068;28;20046;-63
2022/09/30 08:28:45;;;;;;;3.95;2.30;;;20.80;67.50;;;22.62;54.66;100551.41;5246988;28;20041;-61
2022/09/30 08:31:19;;;;;;;;;;;20.70;66.70;;;22.43;55.31;100535.84;5246994;28;20052;-60
2022/09/30 08:33:53;;;;;;;3.63;2.28;;;20.60;67.00;;;22.21;55.74;100550.38;5247599;28;19920;-61
2022/09/30 08:36:27;;;;;;;4.57;2.45;;;20.40;67.20;;;22.26;56.01;100553.84;5247163;28;20058;-60
2022/09/30 08:39:00;;;;;;;3.80;2.17;;;20.50;67.40;;;22.27;56.36;100550.28;5246707;28;20050;-61
2022/09/30 08:41:58;;;;;;;3.38;2.28;;;20.50;67.70;;;22.11;56.96;100543.50;5247287;28;20045;-60
2022/09/30 08:44:43;;;;;;;3.97;2.50;;;20.50;67.80;;;21.77;57.93;100554.56;5246921;28;20044;-64
2022/09/30 08:47:35;;;;;;;3.20;2.30;;;20.40;68.50;;;21.48;58.53;100551.47;5245762;28;20056;-63
2022/09/30 08:50:19;;;;;;;3.67;2.22;;;20.30;68.40;;;21.20;59.18;100549.16;5245130;28;20094;-66
2022/09/30 08:52:55;;;;;;;4.95;2.38;;;20.20;68.60;;;20.70;59.69;100550.63;5245702;28;20047;-64
2022/09/30 08:55:35;;;;;;;3.63;2.60;;;19.90;68.50;;;20.11;61.75;100554.66;5245543;28;20040;-63
2022/09/30 08:58:20;;;;;;;4.50;2.92;;;19.50;70.00;;;19.58;63.81;100553.28;5245651;28;20044;-64
2022/09/30 09:00:57;;;;;;;4.05;2.63;;;19.20;71.70;;;19.25;64.69;100546.38;5245719;28;20044;-65
2022/09/30 09:03:32;;;;;;;3.72;2.15;;;18.80;72.50;;;19.03;69.04;100548.19;5245774;28;20070;-63
2022/09/30 09:06:20;;;;;;;4.25;2.63;;;18.60;77.60;;;18.82;67.16;100549.16;5246178;28;20400;-64
2022/09/30 09:09:28;;;;;;;4.60;2.60;;;18.50;74.70;;;18.65;66.86;100546.53;5245303;28;20049;-64
2022/09/30 09:12:14;;;;;;;4.25;1.95;;;18.30;74.50;;;18.63;67.31;100543.00;5219338;28;20053;-65
2022/09/30 09:15:08;;;;;;;5.65;2.40;;;18.30;75.10;;;18.54;67.71;100542.16;5245574;28;20131;-63
2022/09/30 09:18:03;;;;;;;3.65;2.15;;;18.20;75.70;;;18.49;68.11;100539.50;5247343;28;20128;-63
2022/09/30 09:20:41;;;;;;;4.47;2.30;;;18.10;76.10;;;18.52;69.31;100535.97;5249271;28;20523;-63
2022/09/30 09:23:14;;;;;;;3.25;2.10;;;18.10;77.80;;;18.65;70.43;100533.34;5249445;28;20044;-66
2022/09/30 09:25:49;;;;;;;3.65;2.28;;;18.20;79.60;;;18.84;71.91;100525.38;5249480;28;20511;-59
2022/09/30 09:28:35;;;;;;;5.30;2.38;;;18.40;81.10;;;19.02;70.10;100530.59;5249682;28;20500;-62
2022/09/30 09:31:15;;;;;;;3.65;1.98;;;18.50;79.20;;;19.20;70.06;100530.53;5249624;28;20051;-62
2022/09/30 09:33:47;;;;;;;3.42;2.08;;;18.70;79.10;;;19.31;69.70;100535.78;5248912;28;20080;-61
2022/09/30 09:36:36;;;;;;;3.22;1.85;;;18.80;79.40;;;19.37;69.30;100532.22;5249604;28;20052;-62
2022/09/30 09:39:27;;;;;;;3.67;2.05;;;18.90;78.10;;;19.40;69.71;100526.91;5248995;28;20044;-64
2022/09/30 09:42:09;;;;;;;6.60;2.35;;;18.90;78.30;;;19.48;69.47;100533.00;5249223;28;20499;-62
2022/09/30 09:44:52;;;;;;;4.72;1.98;;;19.00;78.50;;;19.58;68.67;100529.47;5250046;28;20063;-63
2022/09/30 09:47:24;;;;;;;3.30;1.92;;;19.10;77.90;;;19.74;70.11;100531.13;5249328;28;20110;-64
2022/09/30 09:50:00;;;;;;;3.97;2.00;;;19.30;79.20;;;19.93;69.66;100534.50;5248980;28;20083;-64
2022/09/30 09:53:11;;;;;;;3.00;1.90;;;19.40;78.50;;;20.01;68.40;100529.16;5248940;28;20530;-64
2022/09/30 09:55:45;;;;;;;4.50;1.92;;;19.60;77.50;;;19.97;67.54;100535.38;5248634;28;20493;-65
2022/09/30 09:58:17;;;;;;;3.72;1.70;;;19.50;76.00;;;19.94;68.57;100535.38;5248656;28;20040;-65
2022/09/30 10:01:10;;;;;;;2.80;2.00;;;19.50;77.00;;;19.99;68.84;100530.94;5248398;28;20048;-59
2022/09/30 10:03:42;;;;;;;2.60;1.90;;;19.50;77.80;;;20.13;69.42;100523.75;5247695;28;20053;-59
2022/09/30 10:06:14;;;;;;;2.95;1.83;;;19.60;78.30;;;20.26;68.93;100516.59;5248796;28;20597;-60
2022/09/30 10:08:55;;;;;;;3.72;2.08;;;19.70;77.90;;;20.33;67.82;100516.53;5248546;28;20062;-60
2022/09/30 10:11:29;;;;;;;3.05;1.90;;;19.80;76.70;;;20.45;67.96;100522.63;5248488;28;20052;-59
2022/09/30 10:14:02;;;;;;;2.72;1.65;;;19.90;76.90;;;20.60;68.06;100517.16;5248845;28;20102;-66
2022/09/30 10:16:36;;;;;;;2.90;2.10;;;20.00;76.80;;;20.70;67.18;100520.59;5249281;28;20052;-65
2022/09/30 10:19:20;;;;;;;2.72;1.60;;;20.20;76.10;;;20.81;67.66;100526.66;5249083;28;20436;-65
2022/09/30 10:22:19;;;;;;;2.55;1.70;;;20.30;76.40;;;20.77;66.32;100517.00;5249698;28;20497;-62
2022/09/30 10:24:51;;;;;;;3.88;2.08;;;20.30;74.90;;;20.77;66.02;100509.91;5250983;28;20051;-64
2022/09/30 10:27:30;;;;;;;4.20;2.20;;;20.30;75.30;;;20.70;65.98;100518.84;5249456;28;20040;-65
2022/09/30 10:30:02;;;;;;;3.80;2.20;;;20.30;74.40;;;20.61;65.84;100513.66;5249144;28;20044;-65
2022/09/30 10:32:36;;;;;;;3.20;1.80;;;20.20;74.10;;;20.58;66.14;100508.38;5249243;28;20060;-64
2022/09/30 10:35:21;;;;;;;3.60;1.92;;;20.20;74.50;;;20.51;63.44;100504.91;5248925;28;20052;-64
2022/09/30 10:37:58;;;;;;;3.53;1.83;;;20.20;72.00;;;20.50;65.56;100499.63;5247524;28;20040;-64
2022/09/30 10:40:30;;;;;;;3.90;2.50;;;20.10;73.70;;;20.45;64.87;100507.63;5248784;28;20051;-64
2022/09/30 10:43:02;;;;;;;3.67;2.05;;;20.10;72.90;;;20.49;67.01;100505.84;5247345;28;20140;-64
2022/09/30 10:45:40;;;;;;;3.35;1.70;;;20.10;75.10;;;20.67;65.54;100497.69;5248482;28;20449;-65
2022/09/30 10:48:20;;;;;;;2.30;1.38;;;20.20;73.90;;;20.81;64.25;100494.88;5247944;28;20036;-64
2022/09/30 10:50:54;;;;;;;3.17;1.40;;;20.30;72.60;;;20.91;63.65;100511.53;5247459;28;20044;-64
2022/09/30 10:53:30;;;;;;;2.53;1.42;;;20.30;72.00;;;20.95;63.15;100497.38;5246964;28;20052;-64
2022/09/30 10:56:04;;;;;;;2.83;1.48;;;20.40;71.70;;;20.91;63.21;100506.22;5248861;28;20499;-65
2022/09/30 10:58:46;;;;;;;3.13;1.50;;;20.30;71.60;;;20.88;63.27;100500.97;5248490;28;20504;-64
2022/09/30 11:01:26;;;;;;;4.60;1.95;;;20.30;71.50;;;20.91;64.66;100506.22;5249876;28;20558;-65